Time;durP1;ratioP1;P1;durP2;ratioP2;P2;SDS_P1;SDS_P2;PMS_P1;PMS_P2;Temp;Humidity;BMP_temperature;BMP_pressure;BME280_temperature;BME280_humidity;BME280_pressure;Samples;Min_cycle;Max_cycle;Signal;HPM_P1;HPM_P2
2023/04/29 00:01:24;;;;;;;;;17.00;15.75;21.40;37.10;;;;;;109830;1257;49329;-69
2023/04/29 00:03:51;;;;;;;;;17.00;15.00;21.40;37.10;;;;;;109958;1252;45198;-68
2023/04/29 00:06:18;;;;;;;;;19.00;15.00;21.40;37.10;;;;;;109874;1252;56057;-71
2023/04/29 00:08:45;;;;;;;;;15.00;13.33;21.40;37.10;;;;;;109874;1257;54035;-70
2023/04/29 00:11:12;;;;;;;;;15.00;13.00;21.40;37.10;;;;;;109842;1258;49544;-71
2023/04/29 00:13:39;;;;;;;;;15.00;14.00;21.30;37.00;;;;;;109836;1257;49322;-70
2023/04/29 00:16:09;;;;;;;;;16.00;15.00;21.30;37.00;;;;;;109874;1257;45964;-71
2023/04/29 00:18:36;;;;;;;;;16.00;13.00;21.30;37.10;;;;;;109983;1254;56245;-72
2023/04/29 00:21:06;;;;;;;;;15.00;14.00;21.30;37.00;;;;;;109877;1254;54520;-71
2023/04/29 00:23:34;;;;;;;;;15.00;13.00;21.30;37.00;;;;;;109859;1257;48967;-70
2023/04/29 00:26:01;;;;;;;;;20.00;16.00;21.30;37.00;;;;;;109886;1252;50566;-73
2023/04/29 00:28:29;;;;;;;;;19.50;16.00;21.30;37.10;;;;;;109872;1254;45653;-70
2023/04/29 00:30:56;;;;;;;;;16.00;15.00;21.30;37.00;;;;;;109851;1257;55292;-71
2023/04/29 00:33:23;;;;;;;;;16.50;15.50;21.30;37.60;;;;;;109823;1252;54541;-69
2023/04/29 00:35:51;;;;;;;;;14.00;12.50;21.20;37.00;;;;;;109910;1252;50622;-70
2023/04/29 00:38:18;;;;;;;;;18.00;15.00;21.20;37.00;;;;;;109824;1254;50028;-69
2023/04/29 00:40:45;;;;;;;;;15.00;13.00;21.20;37.00;;;;;;109866;1257;46309;-69
2023/04/29 00:43:12;;;;;;;;;20.00;17.00;21.20;37.00;;;;;;109933;1256;55786;-69
2023/04/29 00:45:39;;;;;;;;;16.00;14.50;21.20;37.00;;;;;;109920;1257;54220;-69
2023/04/29 00:48:06;;;;;;;;;16.00;15.00;21.20;37.00;;;;;;109860;1257;48949;-67
2023/04/29 00:50:35;;;;;;;;;14.00;13.00;21.10;37.10;;;;;;109878;1252;52158;-68
2023/04/29 00:53:02;;;;;;;;;14.50;13.50;21.10;36.90;;;;;;109904;1254;46613;-69
2023/04/29 00:55:30;;;;;;;;;19.00;17.00;21.10;37.00;;;;;;109866;1257;56923;-68
2023/04/29 00:57:58;;;;;;;;;17.00;15.00;21.10;37.00;;;;;;109927;1257;53962;-69
2023/04/29 01:00:25;;;;;;;;;20.00;14.00;21.10;36.90;;;;;;109923;1252;48904;-70
2023/04/29 01:02:54;;;;;;;;;;;21.10;36.90;;;;;;109859;1252;49623;-69
2023/04/29 01:05:25;;;;;;;;;16.00;14.00;21.10;37.10;;;;;;109911;1258;45893;-69
2023/04/29 01:07:55;;;;;;;;;15.00;13.00;21.00;36.90;;;;;;109906;1257;55607;-69
2023/04/29 01:10:29;;;;;;;;;14.50;13.50;21.00;36.90;;;;;;109907;1257;54644;-71
2023/04/29 01:13:22;;;;;;;;;15.00;14.00;21.00;36.90;;;;;;109927;1252;49682;-68
2023/04/29 01:16:02;;;;;;;;;14.00;12.00;21.00;36.90;;;;;;109852;1252;49716;-68
2023/04/29 01:18:42;;;;;;;;;15.00;14.00;21.00;37.10;;;;;;109965;1257;45862;-71
2023/04/29 01:21:10;;;;;;;;;14.00;13.00;21.00;36.80;;;;;;109859;1256;55317;-68
2023/04/29 01:23:37;;;;;;;;;14.00;12.00;21.00;36.80;;;;;;109900;1256;54810;-69
2023/04/29 01:26:05;;;;;;;;;16.00;13.00;21.00;36.90;;;;;;109946;1257;50243;-69
2023/04/29 01:28:40;;;;;;;;;16.00;14.00;21.00;36.90;;;;;;109904;1257;50262;-69
2023/04/29 01:31:20;;;;;;;;;16.00;15.00;20.90;36.80;;;;;;109879;1256;46597;-70
2023/04/29 01:34:06;;;;;;;;;16.50;13.00;20.90;36.80;;;;;;109875;1252;55537;-71
2023/04/29 01:36:43;;;;;;;;;14.00;13.00;20.90;36.90;;;;;;109953;1257;54579;-72
2023/04/29 01:39:14;;;;;;;;;15.25;13.00;20.90;36.90;;;;;;109941;1252;49101;-67
2023/04/29 01:42:02;;;;;;;;;16.00;15.00;20.90;37.30;;;;;;109915;1257;50033;-69
2023/04/29 01:44:30;;;;;;;;;14.00;13.00;20.80;36.70;;;;;;109899;1254;45608;-71
2023/04/29 01:46:58;;;;;;;;;17.50;16.00;20.80;36.80;;;;;;109954;1252;57201;-69
2023/04/29 01:49:25;;;;;;;;;16.00;15.00;20.80;37.00;;;;;;109895;1252;54178;-68
2023/04/29 01:51:52;;;;;;;;;16.00;14.50;20.80;36.90;;;;;;109903;1252;48969;-68
2023/04/29 01:54:21;;;;;;;;;15.33;13.00;20.80;36.80;;;;;;110352;1258;49027;-69
2023/04/29 01:56:48;;;;;;;;;15.00;14.00;20.80;36.80;;;;;;109996;1252;46645;-70
2023/04/29 01:59:15;;;;;;;;;19.00;16.50;20.80;36.80;;;;;;109861;1257;55421;-68
2023/04/29 02:01:42;;;;;;;;;16.00;14.00;20.80;37.00;;;;;;109892;1252;54868;-70
2023/04/29 02:04:09;;;;;;;;;14.00;13.00;20.80;36.80;;;;;;109906;1257;49129;-68
2023/04/29 02:06:36;;;;;;;;;16.50;15.50;20.70;36.80;;;;;;109934;1256;49108;-68
2023/04/29 02:09:03;;;;;;;;;14.67;13.00;20.70;36.80;;;;;;109900;1253;45386;-71
2023/04/29 02:11:30;;;;;;;;;13.00;12.00;20.70;36.80;;;;;;109879;1254;55978;-69
2023/04/29 02:13:57;;;;;;;;;13.50;12.25;20.70;36.80;;;;;;109842;1257;55664;-69
2023/04/29 02:16:24;;;;;;;;;18.50;15.00;20.70;36.80;;;;;;109924;1253;49175;-71
2023/04/29 02:18:52;;;;;;;;;17.00;16.00;20.70;36.90;;;;;;109908;1257;49296;-71
2023/04/29 02:21:19;;;;;;;;;16.00;15.00;20.70;36.90;;;;;;109922;1257;46949;-70
2023/04/29 02:23:46;;;;;;;;;16.00;15.00;20.70;36.90;;;;;;109887;1257;56407;-69
2023/04/29 02:26:14;;;;;;;;;17.33;15.00;20.70;36.90;;;;;;109846;1257;54590;-70
2023/04/29 02:28:41;;;;;;;;;17.00;15.00;20.70;36.90;;;;;;109802;1257;50155;-71
2023/04/29 02:31:08;;;;;;;;;19.67;14.00;20.60;36.80;;;;;;109811;1252;49649;-69
2023/04/29 02:33:35;;;;;;;;;16.00;14.00;20.60;36.80;;;;;;109851;1252;45368;-69
2023/04/29 02:36:02;;;;;;;;;16.00;14.50;20.60;37.00;;;;;;109873;1252;56188;-70
2023/04/29 02:38:29;;;;;;;;;15.00;13.00;20.60;36.80;;;;;;109859;1252;54258;-68
2023/04/29 02:40:57;;;;;;;;;15.00;14.00;20.60;36.80;;;;;;109868;1252;49203;-69
2023/04/29 02:43:25;;;;;;;;;15.00;12.00;20.60;36.80;;;;;;109825;1252;49393;-69
2023/04/29 02:45:52;;;;;;;;;15.00;14.00;20.60;37.00;;;;;;109858;1257;46133;-69
2023/04/29 02:48:19;;;;;;;;;15.00;14.00;20.60;36.80;;;;;;109890;1252;56661;-69
2023/04/29 02:50:46;;;;;;;;;17.00;16.00;20.60;36.80;;;;;;109809;1252;54748;-68
2023/04/29 02:53:13;;;;;;;;;17.33;14.00;20.50;36.70;;;;;;109803;1255;49349;-68
2023/04/29 02:55:40;;;;;;;;;18.00;15.00;20.50;36.70;;;;;;109943;1252;49734;-68
2023/04/29 02:58:07;;;;;;;;;15.00;14.00;20.50;36.80;;;;;;109833;1252;46068;-67
2023/04/29 03:00:34;;;;;;;;;15.00;13.00;20.50;36.70;;;;;;109838;1258;55558;-67
2023/04/29 03:03:01;;;;;;;;;14.75;13.50;20.50;36.70;;;;;;109836;1257;54132;-68
2023/04/29 03:05:28;;;;;;;;;15.00;14.00;20.50;36.90;;;;;;110019;1252;49733;-67
2023/04/29 03:07:55;;;;;;;;;18.00;16.50;20.50;36.70;;;;;;109877;1252;49971;-67
2023/04/29 03:10:23;;;;;;;;;14.00;13.00;20.50;36.90;;;;;;109906;1257;45244;-67
2023/04/29 03:12:50;;;;;;;;;16.50;13.50;20.40;37.10;;;;;;109835;1252;55371;-67
2023/04/29 03:15:16;;;;;;;;;16.50;14.00;20.40;36.60;;;;;;109861;1252;53957;-68
2023/04/29 03:17:45;;;;;;;;;15.50;12.50;20.40;36.60;;;;;;109830;1257;48994;-70
2023/04/29 03:20:12;;;;;;;;;16.00;15.00;20.40;36.60;;;;;;109902;1254;49033;-69
2023/04/29 03:22:39;;;;;;;;;18.00;15.00;20.40;36.60;;;;;;109885;1257;46430;-68
2023/04/29 03:25:06;;;;;;;;;15.00;14.00;20.40;36.60;;;;;;109850;1252;56474;-68
2023/04/29 03:27:33;;;;;;;;;15.00;13.33;20.30;36.50;;;;;;109894;1252;54361;-70
2023/04/29 03:30:01;;;;;;;;;15.00;14.00;20.30;36.60;;;;;;109835;1257;49546;-69
2023/04/29 03:32:28;;;;;;;;;16.00;15.00;20.30;36.70;;;;;;109819;1256;49043;-68
2023/04/29 03:34:55;;;;;;;;;16.00;14.00;20.30;36.60;;;;;;109938;1252;45435;-68
2023/04/29 03:37:22;;;;;;;;;15.00;13.00;20.30;36.50;;;;;;109842;1252;56378;-69
2023/04/29 03:39:49;;;;;;;;;19.00;15.00;20.30;36.50;;;;;;109884;1252;54638;-70
2023/04/29 03:42:16;;;;;;;;;15.00;14.00;20.30;36.50;;;;;;109886;1257;49087;-67
2023/04/29 03:44:43;;;;;;;;;16.50;15.00;20.30;36.50;;;;;;110018;1252;50940;-67
2023/04/29 03:47:10;;;;;;;;;16.50;15.50;20.30;36.50;;;;;;109912;1254;46368;-69
2023/04/29 03:49:37;;;;;;;;;23.00;19.00;20.30;36.50;;;;;;110013;1252;55880;-66
2023/04/29 03:52:05;;;;;;;;;19.00;17.00;20.30;36.50;;;;;;109939;1257;53651;-68
2023/04/29 03:54:32;;;;;;;;;16.50;15.50;20.30;36.50;;;;;;110397;1252;49931;-68
2023/04/29 03:56:59;;;;;;;;;19.00;16.00;20.20;36.50;;;;;;109895;1257;49660;-68
2023/04/29 03:59:26;;;;;;;;;19.00;16.50;20.30;36.50;;;;;;109914;1257;45372;-68
2023/04/29 04:01:53;;;;;;;;;22.50;17.50;20.30;36.50;;;;;;110022;1252;56130;-66
2023/04/29 04:04:20;;;;;;;;;17.00;16.00;20.20;36.40;;;;;;109888;1252;53916;-67
2023/04/29 04:06:50;;;;;;;;;20.00;16.00;20.20;36.50;;;;;;109813;1252;50833;-66
2023/04/29 04:09:18;;;;;;;;;18.67;15.00;20.20;36.70;;;;;;109934;1257;49867;-67
2023/04/29 04:11:45;;;;;;;;;18.00;17.00;20.20;36.50;;;;;;109932;1256;46126;-68
2023/04/29 04:14:11;;;;;;;;;17.00;15.00;20.10;36.60;;;;;;109881;1256;56074;-69
2023/04/29 04:16:38;;;;;;;;;17.00;15.00;20.10;36.40;;;;;;110150;1256;55379;-67
2023/04/29 04:19:05;;;;;;;;;16.00;15.00;20.10;36.40;;;;;;109917;1252;49065;-69
2023/04/29 04:21:32;;;;;;;;;19.00;16.50;20.10;36.40;;;;;;110052;1257;49495;-67
2023/04/29 04:23:59;;;;;;;;;20.00;19.00;20.10;36.40;;;;;;110018;1257;46067;-65
2023/04/29 04:26:26;;;;;;;;;22.00;17.50;20.10;36.40;;;;;;109864;1252;55366;-66
2023/04/29 04:28:53;;;;;;;;;18.00;17.00;20.10;36.60;;;;;;109905;1252;53447;-67
2023/04/29 04:31:20;;;;;;;;;20.33;18.00;20.10;36.50;;;;;;109879;1255;49534;-71
2023/04/29 04:33:46;;;;;;;;;21.00;18.00;20.10;36.50;;;;;;109798;1257;49593;-68
2023/04/29 04:36:13;;;;;;;;;21.00;19.00;20.10;36.30;;;;;;109890;1256;46464;-68
2023/04/29 04:38:40;;;;;;;;;21.00;17.00;20.10;36.30;;;;;;109944;1252;56365;-72
2023/04/29 04:41:07;;;;;;;;;15.00;14.00;20.10;36.30;;;;;;110057;1253;54462;-65
2023/04/29 04:43:34;;;;;;;;;20.00;18.50;20.10;36.30;;;;;;109883;1257;49701;-65
2023/04/29 04:46:13;;;;;;;;;19.00;16.00;20.10;36.30;;;;;;109937;1252;49581;-65
2023/04/29 04:48:40;;;;;;;;;19.00;15.50;20.10;36.50;;;;;;109907;1255;46024;-67
2023/04/29 04:51:11;;;;;;;;;34.00;30.00;20.10;37.20;;;;;;109080;1252;1127570;-65
2023/04/29 04:53:39;;;;;;;;;39.00;33.50;20.20;41.80;;;;;;109814;1252;54111;-65
2023/04/29 04:56:07;;;;;;;;;45.00;33.50;20.20;42.30;;;;;;109975;1257;49584;-67
2023/04/29 04:58:34;;;;;;;;;51.00;34.00;20.40;42.10;;;;;;109818;1257;50293;-63
2023/04/29 05:01:01;;;;;;;;;37.50;30.00;20.50;41.90;;;;;;110116;1252;45442;-69
2023/04/29 05:03:28;;;;;;;;;32.00;31.00;20.60;41.90;;;;;;109891;1252;55784;-68
2023/04/29 05:05:57;;;;;;;;;43.00;30.00;20.70;41.10;;;;;;109903;1256;54126;-68
2023/04/29 05:08:24;;;;;;;;;40.00;32.50;20.80;40.70;;;;;;110040;1252;50291;-68
2023/04/29 05:10:52;;;;;;;;;42.33;32.33;20.90;40.40;;;;;;110146;1254;50663;-69
2023/04/29 05:13:19;;;;;;;;;36.25;29.25;20.90;40.00;;;;;;109845;1252;45175;-69
2023/04/29 05:15:46;;;;;;;;;42.33;30.00;21.00;40.00;;;;;;109694;1252;55646;-71
2023/04/29 05:18:13;;;;;;;;;38.50;32.00;21.00;39.60;;;;;;109925;1252;53922;-69
2023/04/29 05:20:39;;;;;;;;;35.00;29.00;21.00;39.30;;;;;;110093;1257;51671;-68
2023/04/29 05:23:07;;;;;;;;;44.00;33.00;21.00;39.20;;;;;;109766;1252;49809;-71
2023/04/29 05:25:34;;;;;;;;;40.50;30.00;21.00;39.00;;;;;;110062;1257;45674;-72
2023/04/29 05:28:03;;;;;;;;;39.00;33.00;20.90;39.20;;;;;;109842;1252;55210;-70
2023/04/29 05:30:30;;;;;;;;;45.00;34.00;20.90;39.10;;;;;;110041;1252;54088;-70
2023/04/29 05:32:57;;;;;;;;;46.00;34.00;21.00;39.10;;;;;;109743;1254;50297;-70
2023/04/29 05:35:24;;;;;;;;;37.00;31.00;21.00;39.00;;;;;;109655;1254;49378;-67
2023/04/29 05:37:51;;;;;;;;;40.00;30.00;20.90;38.70;;;;;;110053;1252;46657;-66
2023/04/29 05:40:18;;;;;;;;;37.00;31.00;21.00;38.60;;;;;;109826;1252;56537;-65
2023/04/29 05:42:45;;;;;;;;;33.33;29.00;21.00;38.50;;;;;;109891;1252;54511;-66
2023/04/29 05:45:12;;;;;;;;;31.00;28.00;21.00;38.40;;;;;;109693;1257;49548;-67
2023/04/29 05:47:40;;;;;;;;;37.00;31.00;20.90;38.40;;;;;;109935;1252;49592;-67
2023/04/29 05:50:07;;;;;;;;;39.00;30.00;20.90;38.20;;;;;;109921;1252;45378;-68
2023/04/29 05:52:34;;;;;;;;;31.00;29.00;20.90;38.20;;;;;;110035;1252;56001;-65
2023/04/29 05:55:01;;;;;;;;;36.50;30.50;20.80;38.10;;;;;;109967;1257;54492;-67
2023/04/29 05:57:28;;;;;;;;;39.00;27.00;20.80;38.10;;;;;;109999;1256;48922;-67
2023/04/29 05:59:56;;;;;;;;;37.00;29.00;20.80;38.10;;;;;;109899;1252;50185;-67
2023/04/29 06:02:23;;;;;;;;;35.00;29.00;20.80;38.10;;;;;;110028;1252;46225;-67
2023/04/29 06:04:50;;;;;;;;;35.33;29.67;20.80;38.10;;;;;;109989;1252;56051;-67
2023/04/29 06:07:17;;;;;;;;;31.00;27.00;20.70;38.00;;;;;;110002;1255;53463;-68
2023/04/29 06:09:44;;;;;;;;;30.00;29.00;20.70;38.00;;;;;;109963;1252;50424;-67
2023/04/29 06:12:12;;;;;;;;;35.00;30.67;20.70;37.90;;;;;;109932;1257;50556;-67
2023/04/29 06:14:38;;;;;;;;;39.00;27.50;20.70;37.90;;;;;;109996;1252;45445;-67
2023/04/29 06:17:06;;;;;;;;;36.50;29.00;20.70;38.10;;;;;;110040;1256;56043;-66
2023/04/29 06:19:33;;;;;;;;;35.00;29.00;20.70;37.90;;;;;;109992;1252;54749;-63
2023/04/29 06:21:59;;;;;;;;;37.50;29.00;20.70;37.80;;;;;;110044;1252;49648;-64
2023/04/29 06:24:26;;;;;;;;;39.00;31.00;20.70;37.80;;;;;;110015;1256;49893;-64
2023/04/29 06:26:53;;;;;;;;;33.00;31.00;20.70;37.80;;;;;;109963;1252;45129;-64
2023/04/29 06:29:20;;;;;;;;;28.50;23.00;20.70;37.90;;;;;;109994;1256;55572;-63
2023/04/29 06:31:47;;;;;;;;;33.00;30.00;20.70;37.60;;;;;;109943;1252;54202;-63
2023/04/29 06:34:14;;;;;;;;;33.00;29.00;20.70;37.60;;;;;;109953;1256;50221;-63
2023/04/29 06:36:41;;;;;;;;;36.00;29.00;20.70;37.60;;;;;;109959;1255;49041;-64
2023/04/29 06:39:08;;;;;;;;;32.00;28.50;20.70;37.60;;;;;;110013;1255;45379;-63
2023/04/29 06:41:35;;;;;;;;;28.50;26.00;20.70;37.70;;;;;;109914;1256;55612;-63
2023/04/29 06:44:03;;;;;;;;;33.50;29.00;20.70;37.50;;;;;;109940;1253;54373;-63
2023/04/29 06:46:29;;;;;;;;;31.00;28.00;20.70;37.40;;;;;;109943;1256;49286;-64
2023/04/29 06:48:56;;;;;;;;;27.67;25.33;20.70;37.40;;;;;;109997;1252;49767;-65
2023/04/29 06:51:23;;;;;;;;;29.00;27.00;20.70;37.60;;;;;;110013;1256;45600;-63
2023/04/29 06:53:51;;;;;;;;;31.00;29.33;20.70;37.40;;;;;;109930;1254;56020;-64
2023/04/29 06:56:18;;;;;;;;;30.00;26.00;20.70;37.40;;;;;;109992;1257;54696;-63
2023/04/29 06:58:45;;;;;;;;;32.00;28.00;20.70;37.40;;;;;;109903;1252;50108;-63
2023/04/29 07:01:12;;;;;;;;;32.00;30.00;20.70;37.40;;;;;;109905;1252;49460;-62
2023/04/29 07:03:39;;;;;;;;;29.50;24.50;20.70;37.40;;;;;;110024;1256;45755;-63
2023/04/29 07:06:06;;;;;;;;;29.67;26.33;20.70;37.40;;;;;;110017;1257;56472;-63
2023/04/29 07:08:32;;;;;;;;;32.00;30.00;20.70;37.40;;;;;;109921;1257;54430;-64
2023/04/29 07:11:00;;;;;;;;;28.00;26.50;20.70;37.40;;;;;;109993;1252;49470;-63
2023/04/29 07:13:27;;;;;;;;;33.50;31.00;20.70;37.40;;;;;;109941;1257;49851;-63
2023/04/29 07:15:54;;;;;;;;;30.50;29.00;20.70;37.40;;;;;;109959;1252;45779;-63
2023/04/29 07:18:21;;;;;;;;;26.00;24.00;20.70;37.40;;;;;;109987;1256;56757;-62
2023/04/29 07:20:49;;;;;;;;;32.00;28.00;20.70;37.30;;;;;;109962;1253;53684;-63
2023/04/29 07:23:17;;;;;;;;;34.00;28.00;20.80;37.40;;;;;;109946;1252;50061;-63
2023/04/29 07:25:44;;;;;;;;;31.00;27.50;20.80;37.30;;;;;;110001;1252;49904;-63
2023/04/29 07:28:11;;;;;;;;;26.33;24.67;20.80;36.90;;;;;;109969;1253;46759;-63
2023/04/29 07:30:38;;;;;;;;;32.00;23.50;20.90;37.30;;;;;;109979;1252;56604;-63
2023/04/29 07:33:05;;;;;;;;;33.00;25.00;20.90;37.30;;;;;;110003;1252;53250;-63
2023/04/29 07:35:32;;;;;;;;;30.50;25.50;20.90;37.30;;;;;;109954;1253;50370;-63
2023/04/29 07:37:59;;;;;;;;;27.00;21.00;20.90;37.20;;;;;;109994;1255;49679;-64
2023/04/29 07:40:26;;;;;;;;;28.00;24.00;21.00;37.80;;;;;;110039;1252;46293;-64
2023/04/29 07:42:53;;;;;;;;;27.00;23.50;21.00;37.20;;;;;;110005;1257;55909;-64
2023/04/29 07:45:20;;;;;;;;;28.00;25.00;21.00;37.20;;;;;;109963;1257;53517;-64
2023/04/29 07:47:47;;;;;;;;;23.00;22.00;21.10;37.80;;;;;;109966;1257;49372;-64
2023/04/29 07:50:14;;;;;;;;;27.00;22.00;21.10;37.10;;;;;;109985;1252;49642;-64
2023/04/29 07:52:42;;;;;;;;;32.00;24.00;21.20;37.10;;;;;;110018;1252;46028;-63
2023/04/29 07:55:09;;;;;;;;;32.00;26.50;21.20;37.10;;;;;;109928;1257;55631;-63
2023/04/29 07:57:35;;;;;;;;;25.00;22.00;21.30;37.20;;;;;;110011;1252;53565;-63
2023/04/29 08:00:03;;;;;;;;;33.50;26.00;21.20;37.20;;;;;;109968;1252;50438;-62
2023/04/29 08:02:30;;;;;;;;;28.67;26.00;21.30;37.00;;;;;;109985;1252;48942;-62
2023/04/29 08:04:57;;;;;;;;;30.00;23.50;21.30;37.20;;;;;;110038;1257;45274;-64
2023/04/29 08:07:24;;;;;;;;;25.00;22.00;21.40;37.20;;;;;;109971;1252;55200;-64
2023/04/29 08:09:51;;;;;;;;;27.00;24.00;21.30;36.60;;;;;;109959;1252;54860;-65
2023/04/29 08:12:18;;;;;;;;;22.00;21.00;21.40;37.50;;;;;;110096;1256;49818;-64
2023/04/29 08:14:45;;;;;;;;;23.00;22.00;21.40;36.90;;;;;;109978;1254;48973;-65
2023/04/29 08:17:12;;;;;;;;;21.00;20.00;21.40;36.90;;;;;;110020;1252;45986;-68
2023/04/29 08:19:39;;;;;;;;;23.00;22.00;21.40;36.90;;;;;;109744;1258;55918;-65
2023/04/29 08:22:07;;;;;;;;;25.25;21.75;21.50;37.00;;;;;;110005;1254;54535;-64
2023/04/29 08:24:34;;;;;;;;;23.00;21.50;21.40;36.90;;;;;;110009;1252;50310;-63
2023/04/29 08:27:02;;;;;;;;;27.00;24.00;21.40;36.90;;;;;;109969;1257;49268;-63
2023/04/29 08:29:32;;;;;;;;;26.50;20.00;21.50;37.20;;;;;;109988;1254;45458;-63
2023/04/29 08:31:59;;;;;;;;;27.50;23.00;21.50;36.90;;;;;;109949;1257;55728;-64
2023/04/29 08:34:27;;;;;;;;;22.50;20.00;21.50;37.10;;;;;;110013;1257;53799;-65
2023/04/29 08:36:54;;;;;;;;;24.00;21.00;21.50;37.00;;;;;;110007;1252;49044;-62
2023/04/29 08:39:21;;;;;;;;;22.00;21.00;21.50;37.10;;;;;;110003;1252;48938;-62
2023/04/29 08:41:50;;;;;;;;;23.50;22.00;21.50;37.10;;;;;;109956;1252;45816;-62
2023/04/29 08:44:17;;;;;;;;;25.00;23.00;21.60;37.00;;;;;;110018;1257;55327;-63
2023/04/29 08:46:45;;;;;;;;;26.00;23.00;21.60;37.00;;;;;;109943;1253;53988;-64
2023/04/29 08:49:13;;;;;;;;;28.00;24.00;21.60;37.00;;;;;;109961;1257;49057;-70
2023/04/29 08:51:40;;;;;;;;;24.00;22.00;21.60;37.00;;;;;;109958;1255;49844;-66
2023/04/29 08:54:07;;;;;;;;;27.67;22.00;21.60;37.00;;;;;;109976;1252;46027;-64
2023/04/29 08:56:34;;;;;;;;;23.00;22.00;21.70;37.10;;;;;;109971;1254;56327;-65
2023/04/29 08:59:03;;;;;;;;;22.00;19.00;21.70;37.10;;;;;;109911;1252;53873;-65
2023/04/29 09:01:30;;;;;;;;;20.50;18.00;21.70;37.20;;;;;;109978;1255;49296;-63
2023/04/29 09:04:09;;;;;;;;;21.00;19.00;21.80;37.10;;;;;;109959;1252;49815;-63
2023/04/29 09:06:37;;;;;;;;;22.00;19.00;21.80;37.30;;;;;;109952;1252;45358;-63
2023/04/29 09:09:04;;;;;;;;;21.00;18.00;21.90;37.10;;;;;;109961;1257;56681;-63
2023/04/29 09:11:32;;;;;;;;;22.50;20.00;21.90;37.00;;;;;;109991;1258;53795;-64
2023/04/29 09:14:00;;;;;;;;;23.67;21.67;22.00;37.30;;;;;;109986;1254;49328;-63
2023/04/29 09:16:28;;;;;;;;;19.00;17.00;22.00;36.50;;;;;;109979;1257;50132;-64
2023/04/29 09:18:55;;;;;;;;;22.00;18.00;22.10;37.10;;;;;;110016;1252;45642;-64
2023/04/29 09:21:26;;;;;;;;;23.00;22.00;22.20;37.00;;;;;;110032;1257;55646;-63
2023/04/29 09:23:58;;;;;;;;;22.50;19.50;22.20;37.00;;;;;;110002;1255;54499;-63
2023/04/29 09:26:25;;;;;;;;;24.00;22.00;22.30;37.00;;;;;;110102;1257;49643;-64
2023/04/29 09:29:10;;;;;;;;;24.50;19.00;22.40;37.00;;;;;;110005;1252;49793;-63
2023/04/29 09:31:40;;;;;;;;;20.00;19.00;22.40;37.10;;;;;;110060;1257;45750;-63
2023/04/29 09:34:08;;;;;;;;;22.00;19.00;22.50;37.10;;;;;;109999;1252;55609;-64
2023/04/29 09:36:49;;;;;;;;;20.00;18.00;22.50;36.90;;;;;;110010;1258;53959;-64
2023/04/29 09:39:19;;;;;;;;;;;22.60;36.90;;;;;;110088;1257;50052;-63
2023/04/29 09:41:50;;;;;;;;;21.67;19.00;22.70;36.90;;;;;;109995;1257;48802;-64
2023/04/29 09:44:18;;;;;;;;;18.00;15.00;22.70;36.80;;;;;;110034;1256;45159;-64
2023/04/29 09:46:56;;;;;;;;;21.00;18.00;22.80;37.10;;;;;;109921;1252;56042;-63
2023/04/29 09:49:28;;;;;;;;;18.00;17.00;22.80;36.80;;;;;;110001;1254;54673;-64
2023/04/29 09:51:58;;;;;;;;;17.67;16.33;22.90;36.90;;;;;;109994;1252;50530;-64
2023/04/29 09:54:28;;;;;;;;;20.00;18.00;22.90;36.80;;;;;;110023;1257;49407;-64
2023/04/29 09:56:56;;;;;;;;;21.50;17.00;23.00;37.40;;;;;;110018;1257;46076;-64
2023/04/29 09:59:24;;;;;;;;;20.00;18.00;23.00;37.30;;;;;;109992;1252;56168;-64
2023/04/29 10:01:56;;;;;;;;;21.00;19.50;23.10;36.80;;;;;;109961;1252;53492;-63
2023/04/29 10:04:25;;;;;;;;;19.67;18.33;23.10;37.00;;;;;;109922;1252;49814;-64
2023/04/29 10:06:54;;;;;;;;;24.50;19.50;23.20;36.90;;;;;;110011;1252;49040;-64
2023/04/29 10:09:22;;;;;;;;;19.67;17.67;23.20;37.00;;;;;;110016;1252;45235;-64
2023/04/29 10:11:51;;;;;;;;;20.50;19.00;23.30;36.80;;;;;;110010;1257;56096;-62
2023/04/29 10:14:23;;;;;;;;;22.00;18.00;23.30;36.70;;;;;;110047;1256;53595;-63
2023/04/29 10:17:02;;;;;;;;;21.00;19.00;23.30;36.80;;;;;;109956;1257;49382;-64
2023/04/29 10:19:39;;;;;;;;;17.50;16.50;23.30;36.90;;;;;;110046;1257;49281;-64
2023/04/29 10:22:14;;;;;;;;;21.50;17.00;23.40;36.70;;;;;;109882;1254;46203;-63
2023/04/29 10:24:41;;;;;;;;;21.00;18.00;23.40;36.70;;;;;;110000;1252;56705;-64
2023/04/29 10:27:13;;;;;;;;;20.50;17.50;23.40;36.70;;;;;;109910;1254;54078;-62
2023/04/29 10:29:40;;;;;;;;;16.50;15.50;23.40;36.70;;;;;;109987;1256;50230;-63
2023/04/29 10:32:11;;;;;;;;;19.00;18.00;23.40;36.70;;;;;;109920;1257;49580;-64
2023/04/29 10:34:41;;;;;;;;;20.50;19.00;23.40;36.70;;;;;;109975;1252;45154;-63
2023/04/29 10:37:10;;;;;;;;;15.50;14.50;23.40;36.90;;;;;;109916;1253;55942;-64
2023/04/29 10:39:51;;;;;;;;;19.00;16.00;23.50;36.80;;;;;;109980;1252;53676;-64
2023/04/29 10:42:35;;;;;;;;;18.00;15.50;23.50;36.70;;;;;;109956;1257;49365;-64
2023/04/29 10:45:22;;;;;;;;;17.00;16.00;23.50;36.90;;;;;;109971;1252;50473;-64
2023/04/29 10:48:01;;;;;;;;;20.75;17.50;23.60;36.70;;;;;;110016;1257;46455;-64
2023/04/29 10:50:29;;;;;;;;;17.00;16.00;23.60;36.60;;;;;;109949;1257;55633;-63
2023/04/29 10:52:57;;;;;;;;;18.00;15.00;23.60;36.80;;;;;;109968;1257;54071;-65
2023/04/29 10:55:24;;;;;;;;;18.50;16.50;23.60;36.60;;;;;;110079;1257;50823;-64
2023/04/29 10:57:52;;;;;;;;;15.00;14.00;23.60;36.60;;;;;;110044;1252;49631;-63
2023/04/29 11:00:27;;;;;;;;;20.00;19.00;23.60;37.00;;;;;;109931;1252;46622;-64
2023/04/29 11:02:55;;;;;;;;;16.00;15.00;23.60;36.60;;;;;;110046;1256;55889;-64
2023/04/29 11:05:33;;;;;;;;;18.00;16.00;23.60;36.60;;;;;;109994;1252;54741;-63
2023/04/29 11:08:11;;;;;;;;;16.00;15.00;23.60;36.70;;;;;;109955;1252;49513;-64
2023/04/29 11:10:42;;;;;;;;;23.00;18.00;23.60;36.60;;;;;;109998;1256;50212;-64
2023/04/29 11:13:29;;;;;;;;;16.50;15.50;23.60;36.60;;;;;;110073;1256;46026;-63
2023/04/29 11:16:06;;;;;;;;;17.50;16.50;23.60;36.60;;;;;;110049;1256;56581;-65
2023/04/29 11:18:35;;;;;;;;;18.67;15.00;23.60;36.70;;;;;;109979;1254;54312;-65
2023/04/29 11:21:05;;;;;;;;;19.00;16.67;23.60;36.60;;;;;;109906;1257;49258;-64
2023/04/29 11:23:36;;;;;;;;;19.50;16.00;23.50;36.60;;;;;;109974;1252;49017;-63
2023/04/29 11:26:03;;;;;;;;;15.00;14.00;23.50;36.60;;;;;;110086;1256;46197;-65
2023/04/29 11:28:31;;;;;;;;;18.00;16.00;23.50;36.60;;;;;;110031;1256;55360;-64
2023/04/29 11:30:59;;;;;;;;;15.00;14.00;23.50;36.80;;;;;;109990;1257;53885;-64
2023/04/29 11:33:26;;;;;;;;;17.33;14.00;23.50;36.60;;;;;;109975;1254;49377;-63
2023/04/29 11:35:54;;;;;;;;;14.00;13.00;23.40;36.60;;;;;;109966;1252;49974;-64
2023/04/29 11:38:25;;;;;;;;;16.50;15.50;23.40;36.80;;;;;;109952;1252;46817;-64
2023/04/29 11:40:54;;;;;;;;;17.00;15.00;23.40;36.60;;;;;;109985;1257;55818;-63
2023/04/29 11:43:23;;;;;;;;;17.00;16.00;23.40;36.80;;;;;;109957;1252;54309;-63
2023/04/29 11:45:52;;;;;;;;;13.00;12.00;23.40;36.60;;;;;;109949;1252;50177;-64
2023/04/29 11:48:20;;;;;;;;;18.00;14.00;23.40;36.70;;;;;;109963;1254;49381;-63
2023/04/29 11:50:53;;;;;;;;;20.00;14.00;23.40;36.70;;;;;;110006;1254;46495;-65
2023/04/29 11:53:21;;;;;;;;;16.33;14.00;23.40;36.60;;;;;;109990;1252;56033;-63
2023/04/29 11:55:47;;;;;;;;;19.67;15.00;23.40;36.60;;;;;;110047;1252;53916;-64
2023/04/29 11:58:15;;;;;;;;;16.00;15.00;23.40;36.90;;;;;;109884;1254;49631;-64
2023/04/29 12:00:43;;;;;;;;;17.00;14.00;23.40;36.60;;;;;;109970;1256;48944;-63
2023/04/29 12:03:17;;;;;;;;;15.00;12.00;23.40;36.70;;;;;;109923;1258;45873;-63
2023/04/29 12:05:55;;;;;;;;;17.00;16.00;23.30;36.60;;;;;;109973;1256;56193;-63
2023/04/29 12:08:28;;;;;;;;;18.50;15.50;23.30;36.60;;;;;;109991;1252;53983;-63
2023/04/29 12:10:57;;;;;;;;;13.67;12.67;23.30;36.20;;;;;;110062;1253;49922;-63
2023/04/29 12:13:29;;;;;;;;;14.50;13.50;23.30;36.60;;;;;;110063;1256;50572;-64
2023/04/29 12:15:57;;;;;;;;;20.00;17.00;23.30;36.60;;;;;;110089;1252;46127;-63
2023/04/29 12:18:26;;;;;;;;;14.50;13.00;23.30;36.60;;;;;;110057;1252;56028;-63
2023/04/29 12:20:54;;;;;;;;;18.00;15.50;23.30;36.60;;;;;;109986;1252;54317;-65
2023/04/29 12:23:26;;;;;;;;;15.50;14.00;23.30;36.60;;;;;;109953;1257;49525;-63
2023/04/29 12:25:55;;;;;;;;;16.25;12.75;23.30;36.60;;;;;;110126;1256;50414;-64